sensor_id;sensor_type;location;lat;lon;timestamp;temperature;humidity
12849;DHT22;6493;50.928;7.172;2022-12-07T00:02:19;1.60;69.60
12849;DHT22;6493;50.928;7.172;2022-12-07T00:07:24;1.60;69.60
12849;DHT22;6493;50.928;7.172;2022-12-07T00:12:29;1.60;69.70
12849;DHT22;6493;50.928;7.172;2022-12-07T00:17:32;1.60;69.80
12849;DHT22;6493;50.928;7.172;2022-12-07T00:22:38;1.60;69.80
12849;DHT22;6493;50.928;7.172;2022-12-07T00:27:41;1.60;69.70
12849;DHT22;6493;50.928;7.172;2022-12-07T00:32:45;1.70;69.90
12849;DHT22;6493;50.928;7.172;2022-12-07T00:37:50;1.60;69.90
12849;DHT22;6493;50.928;7.172;2022-12-07T00:42:54;1.70;70.00
12849;DHT22;6493;50.928;7.172;2022-12-07T00:47:57;1.70;69.90
12849;DHT22;6493;50.928;7.172;2022-12-07T00:53:02;1.70;69.90
12849;DHT22;6493;50.928;7.172;2022-12-07T00:58:06;1.70;69.90
12849;DHT22;6493;50.928;7.172;2022-12-07T01:03:11;1.70;69.90
12849;DHT22;6493;50.928;7.172;2022-12-07T01:08:16;1.70;69.90
12849;DHT22;6493;50.928;7.172;2022-12-07T01:13:20;1.70;70.00
12849;DHT22;6493;50.928;7.172;2022-12-07T01:18:24;1.70;70.00
12849;DHT22;6493;50.928;7.172;2022-12-07T01:23:29;1.70;70.10
12849;DHT22;6493;50.928;7.172;2022-12-07T01:28:33;1.70;70.10
12849;DHT22;6493;50.928;7.172;2022-12-07T01:33:37;1.70;70.80
12849;DHT22;6493;50.928;7.172;2022-12-07T01:38:43;1.70;70.10
12849;DHT22;6493;50.928;7.172;2022-12-07T01:44:12;1.70;70.10
12849;DHT22;6493;50.928;7.172;2022-12-07T01:49:20;1.80;70.30
12849;DHT22;6493;50.928;7.172;2022-12-07T01:54:26;1.70;70.10
12849;DHT22;6493;50.928;7.172;2022-12-07T01:59:30;1.80;70.20
12849;DHT22;6493;50.928;7.172;2022-12-07T02:04:33;1.70;70.20
12849;DHT22;6493;50.928;7.172;2022-12-07T02:09:39;1.80;70.20
12849;DHT22;6493;50.928;7.172;2022-12-07T02:14:43;1.70;70.10
12849;DHT22;6493;50.928;7.172;2022-12-07T02:20:13;1.70;70.10
12849;DHT22;6493;50.928;7.172;2022-12-07T02:25:33;1.70;70.30
12849;DHT22;6493;50.928;7.172;2022-12-07T02:30:44;1.70;70.20
12849;DHT22;6493;50.928;7.172;2022-12-07T02:35:54;1.80;70.20
12849;DHT22;6493;50.928;7.172;2022-12-07T02:41:04;1.80;70.20
12849;DHT22;6493;50.928;7.172;2022-12-07T02:46:13;1.80;70.30
12849;DHT22;6493;50.928;7.172;2022-12-07T02:51:19;1.80;70.20
12849;DHT22;6493;50.928;7.172;2022-12-07T02:56:30;1.80;70.20
12849;DHT22;6493;50.928;7.172;2022-12-07T03:01:43;1.80;70.30
12849;DHT22;6493;50.928;7.172;2022-12-07T03:06:54;1.80;70.30
12849;DHT22;6493;50.928;7.172;2022-12-07T03:12:05;1.80;70.30
12849;DHT22;6493;50.928;7.172;2022-12-07T03:17:14;1.80;70.30
12849;DHT22;6493;50.928;7.172;2022-12-07T03:22:20;1.80;70.40
12849;DHT22;6493;50.928;7.172;2022-12-07T03:27:27;1.80;70.30
12849;DHT22;6493;50.928;7.172;2022-12-07T03:32:37;1.80;70.30
12849;DHT22;6493;50.928;7.172;2022-12-07T03:37:48;1.80;70.20
12849;DHT22;6493;50.928;7.172;2022-12-07T03:42:54;1.80;70.20
12849;DHT22;6493;50.928;7.172;2022-12-07T03:48:07;1.90;70.40
12849;DHT22;6493;50.928;7.172;2022-12-07T03:53:15;1.80;70.30
12849;DHT22;6493;50.928;7.172;2022-12-07T03:58:20;1.80;70.20
12849;DHT22;6493;50.928;7.172;2022-12-07T04:03:26;1.80;70.20
12849;DHT22;6493;50.928;7.172;2022-12-07T04:08:30;1.80;70.20
12849;DHT22;6493;50.928;7.172;2022-12-07T04:13:33;1.80;70.20
12849;DHT22;6493;50.928;7.172;2022-12-07T04:18:58;1.80;70.30
12849;DHT22;6493;50.928;7.172;2022-12-07T04:24:02;1.80;70.20
12849;DHT22;6493;50.928;7.172;2022-12-07T04:29:06;1.80;70.20
12849;DHT22;6493;50.928;7.172;2022-12-07T04:34:12;1.80;70.30
12849;DHT22;6493;50.928;7.172;2022-12-07T04:39:19;1.80;70.40
12849;DHT22;6493;50.928;7.172;2022-12-07T04:44:24;1.80;70.40
12849;DHT22;6493;50.928;7.172;2022-12-07T04:49:29;1.80;70.40
12849;DHT22;6493;50.928;7.172;2022-12-07T04:54:33;1.80;70.40
12849;DHT22;6493;50.928;7.172;2022-12-07T04:59:36;1.80;70.40
12849;DHT22;6493;50.928;7.172;2022-12-07T05:04:48;1.80;70.40
12849;DHT22;6493;50.928;7.172;2022-12-07T05:09:51;1.80;70.40
12849;DHT22;6493;50.928;7.172;2022-12-07T05:14:55;1.80;70.40
12849;DHT22;6493;50.928;7.172;2022-12-07T05:20:00;1.80;70.40
12849;DHT22;6493;50.928;7.172;2022-12-07T05:25:04;1.80;70.40
12849;DHT22;6493;50.928;7.172;2022-12-07T05:30:08;1.80;70.40
12849;DHT22;6493;50.928;7.172;2022-12-07T05:35:14;1.80;70.40
12849;DHT22;6493;50.928;7.172;2022-12-07T05:40:17;1.80;70.40
12849;DHT22;6493;50.928;7.172;2022-12-07T05:45:21;1.80;70.40
12849;DHT22;6493;50.928;7.172;2022-12-07T05:50:26;1.80;70.40
12849;DHT22;6493;50.928;7.172;2022-12-07T05:55:37;1.80;70.20
12849;DHT22;6493;50.928;7.172;2022-12-07T06:00:40;1.80;70.30
12849;DHT22;6493;50.928;7.172;2022-12-07T06:05:53;1.80;70.30
12849;DHT22;6493;50.928;7.172;2022-12-07T06:10:57;1.80;70.40
12849;DHT22;6493;50.928;7.172;2022-12-07T06:16:14;1.80;70.40
12849;DHT22;6493;50.928;7.172;2022-12-07T06:21:19;1.80;70.40
12849;DHT22;6493;50.928;7.172;2022-12-07T06:26:23;1.70;71.20
12849;DHT22;6493;50.928;7.172;2022-12-07T06:31:26;1.80;70.40
12849;DHT22;6493;50.928;7.172;2022-12-07T06:36:32;1.70;70.30
12849;DHT22;6493;50.928;7.172;2022-12-07T06:41:36;1.70;70.40
12849;DHT22;6493;50.928;7.172;2022-12-07T06:46:40;1.70;70.30
12849;DHT22;6493;50.928;7.172;2022-12-07T06:51:45;1.70;70.30
12849;DHT22;6493;50.928;7.172;2022-12-07T06:56:48;1.70;70.30
12849;DHT22;6493;50.928;7.172;2022-12-07T07:01:52;1.70;70.30
12849;DHT22;6493;50.928;7.172;2022-12-07T07:06:57;1.70;70.40
12849;DHT22;6493;50.928;7.172;2022-12-07T07:12:01;1.70;70.30
12849;DHT22;6493;50.928;7.172;2022-12-07T07:17:05;1.70;70.30
12849;DHT22;6493;50.928;7.172;2022-12-07T07:22:10;1.70;70.30
12849;DHT22;6493;50.928;7.172;2022-12-07T07:27:14;1.70;70.40
12849;DHT22;6493;50.928;7.172;2022-12-07T07:32:17;1.70;70.20
12849;DHT22;6493;50.928;7.172;2022-12-07T07:37:23;1.70;70.20
12849;DHT22;6493;50.928;7.172;2022-12-07T07:42:26;1.70;70.20
12849;DHT22;6493;50.928;7.172;2022-12-07T07:47:30;1.60;70.10
12849;DHT22;6493;50.928;7.172;2022-12-07T07:52:35;1.70;70.30
12849;DHT22;6493;50.928;7.172;2022-12-07T07:57:39;1.70;70.30
12849;DHT22;6493;50.928;7.172;2022-12-07T08:02:43;1.70;70.40
12849;DHT22;6493;50.928;7.172;2022-12-07T08:07:49;1.70;70.40
12849;DHT22;6493;50.928;7.172;2022-12-07T08:12:53;1.70;70.50
12849;DHT22;6493;50.928;7.172;2022-12-07T08:18:16;1.80;70.70
12849;DHT22;6493;50.928;7.172;2022-12-07T08:23:21;1.80;70.80
12849;DHT22;6493;50.928;7.172;2022-12-07T08:28:36;1.90;70.90
12849;DHT22;6493;50.928;7.172;2022-12-07T08:33:40;2.00;70.80
12849;DHT22;6493;50.928;7.172;2022-12-07T08:38:45;2.00;70.70
12849;DHT22;6493;50.928;7.172;2022-12-07T08:44:09;2.00;70.50
12849;DHT22;6493;50.928;7.172;2022-12-07T08:49:15;2.00;70.50
12849;DHT22;6493;50.928;7.172;2022-12-07T08:54:21;2.00;70.60
12849;DHT22;6493;50.928;7.172;2022-12-07T08:59:26;2.10;70.80
12849;DHT22;6493;50.928;7.172;2022-12-07T09:04:30;2.10;70.80
12849;DHT22;6493;50.928;7.172;2022-12-07T09:09:36;2.10;70.80
12849;DHT22;6493;50.928;7.172;2022-12-07T09:14:39;2.10;70.50
12849;DHT22;6493;50.928;7.172;2022-12-07T09:19:43;2.10;70.60
12849;DHT22;6493;50.928;7.172;2022-12-07T09:24:48;2.10;70.50
12849;DHT22;6493;50.928;7.172;2022-12-07T09:29:51;2.10;70.50
12849;DHT22;6493;50.928;7.172;2022-12-07T09:34:55;2.10;70.60
12849;DHT22;6493;50.928;7.172;2022-12-07T09:40:00;2.10;70.80
12849;DHT22;6493;50.928;7.172;2022-12-07T09:45:07;2.20;70.90
12849;DHT22;6493;50.928;7.172;2022-12-07T09:50:15;2.20;70.90
12849;DHT22;6493;50.928;7.172;2022-12-07T09:55:24;2.30;71.00
12849;DHT22;6493;50.928;7.172;2022-12-07T10:00:29;2.30;70.80
12849;DHT22;6493;50.928;7.172;2022-12-07T10:05:35;2.30;70.80
12849;DHT22;6493;50.928;7.172;2022-12-07T10:10:41;2.30;70.90
12849;DHT22;6493;50.928;7.172;2022-12-07T10:15:49;2.30;70.90
12849;DHT22;6493;50.928;7.172;2022-12-07T10:21:08;2.40;71.00
12849;DHT22;6493;50.928;7.172;2022-12-07T10:26:32;2.40;71.00
12849;DHT22;6493;50.928;7.172;2022-12-07T10:31:38;2.40;71.00
12849;DHT22;6493;50.928;7.172;2022-12-07T10:36:42;2.40;70.90
12849;DHT22;6493;50.928;7.172;2022-12-07T10:41:54;2.50;70.90
12849;DHT22;6493;50.928;7.172;2022-12-07T10:47:16;2.50;70.90
12849;DHT22;6493;50.928;7.172;2022-12-07T10:52:43;2.50;70.90
12849;DHT22;6493;50.928;7.172;2022-12-07T10:58:00;2.50;70.90
12849;DHT22;6493;50.928;7.172;2022-12-07T11:03:36;2.50;70.90
12849;DHT22;6493;50.928;7.172;2022-12-07T11:08:52;2.50;71.20
12849;DHT22;6493;50.928;7.172;2022-12-07T11:14:05;2.60;71.30
12849;DHT22;6493;50.928;7.172;2022-12-07T11:19:24;2.60;71.10
12849;DHT22;6493;50.928;7.172;2022-12-07T11:24:40;2.60;71.20
12849;DHT22;6493;50.928;7.172;2022-12-07T11:29:57;2.70;71.30
12849;DHT22;6493;50.928;7.172;2022-12-07T11:35:07;2.80;71.40
12849;DHT22;6493;50.928;7.172;2022-12-07T11:40:18;2.80;71.30
12849;DHT22;6493;50.928;7.172;2022-12-07T11:45:27;2.80;71.20
12849;DHT22;6493;50.928;7.172;2022-12-07T11:50:36;2.90;71.40
12849;DHT22;6493;50.928;7.172;2022-12-07T11:55:43;3.00;71.80
12849;DHT22;6493;50.928;7.172;2022-12-07T12:00:52;3.10;71.80
12849;DHT22;6493;50.928;7.172;2022-12-07T12:05:57;3.10;71.50
12849;DHT22;6493;50.928;7.172;2022-12-07T12:11:06;3.20;71.20
12849;DHT22;6493;50.928;7.172;2022-12-07T12:16:28;3.10;70.90
12849;DHT22;6493;50.928;7.172;2022-12-07T12:21:39;3.10;70.70
12849;DHT22;6493;50.928;7.172;2022-12-07T12:26:49;3.10;70.90
12849;DHT22;6493;50.928;7.172;2022-12-07T12:32:17;3.10;71.10
12849;DHT22;6493;50.928;7.172;2022-12-07T12:37:43;3.10;71.20
12849;DHT22;6493;50.928;7.172;2022-12-07T12:42:47;3.10;71.20
12849;DHT22;6493;50.928;7.172;2022-12-07T12:47:55;3.10;71.10
12849;DHT22;6493;50.928;7.172;2022-12-07T12:53:20;3.10;71.10
12849;DHT22;6493;50.928;7.172;2022-12-07T12:58:34;3.10;70.90
12849;DHT22;6493;50.928;7.172;2022-12-07T13:03:52;3.20;70.90
12849;DHT22;6493;50.928;7.172;2022-12-07T13:09:00;3.20;71.00
12849;DHT22;6493;50.928;7.172;2022-12-07T13:14:38;3.20;70.90
12849;DHT22;6493;50.928;7.172;2022-12-07T13:19:59;3.20;70.90
12849;DHT22;6493;50.928;7.172;2022-12-07T13:25:08;3.20;70.90
12849;DHT22;6493;50.928;7.172;2022-12-07T13:30:15;3.20;70.90
12849;DHT22;6493;50.928;7.172;2022-12-07T13:35:31;3.20;70.90
12849;DHT22;6493;50.928;7.172;2022-12-07T13:40:35;3.30;70.90
12849;DHT22;6493;50.928;7.172;2022-12-07T13:45:41;3.30;70.70
12849;DHT22;6493;50.928;7.172;2022-12-07T13:50:54;3.30;70.60
12849;DHT22;6493;50.928;7.172;2022-12-07T13:55:59;3.20;70.50
12849;DHT22;6493;50.928;7.172;2022-12-07T14:01:03;3.20;70.40
12849;DHT22;6493;50.928;7.172;2022-12-07T14:06:26;3.20;70.40
12849;DHT22;6493;50.928;7.172;2022-12-07T14:11:30;3.20;70.30
12849;DHT22;6493;50.928;7.172;2022-12-07T14:16:35;3.10;70.20
12849;DHT22;6493;50.928;7.172;2022-12-07T14:21:41;3.10;70.20
12849;DHT22;6493;50.928;7.172;2022-12-07T14:26:47;3.10;70.20
12849;DHT22;6493;50.928;7.172;2022-12-07T14:31:52;3.00;70.90
12849;DHT22;6493;50.928;7.172;2022-12-07T14:36:58;3.00;70.10
12849;DHT22;6493;50.928;7.172;2022-12-07T14:42:01;3.00;70.00
12849;DHT22;6493;50.928;7.172;2022-12-07T14:47:07;3.00;70.10
12849;DHT22;6493;50.928;7.172;2022-12-07T14:52:33;2.90;69.90
12849;DHT22;6493;50.928;7.172;2022-12-07T14:57:58;2.90;69.90
12849;DHT22;6493;50.928;7.172;2022-12-07T15:03:02;2.80;69.90
12849;DHT22;6493;50.928;7.172;2022-12-07T15:08:08;2.80;69.90
12849;DHT22;6493;50.928;7.172;2022-12-07T15:13:13;2.80;69.90
12849;DHT22;6493;50.928;7.172;2022-12-07T15:18:34;2.80;69.90
12849;DHT22;6493;50.928;7.172;2022-12-07T15:23:41;2.70;69.80
12849;DHT22;6493;50.928;7.172;2022-12-07T15:28:45;2.70;69.90
12849;DHT22;6493;50.928;7.172;2022-12-07T15:33:49;2.70;69.90
12849;DHT22;6493;50.928;7.172;2022-12-07T15:38:54;2.70;70.00
12849;DHT22;6493;50.928;7.172;2022-12-07T15:44:15;2.70;69.90
12849;DHT22;6493;50.928;7.172;2022-12-07T15:49:36;2.70;69.90
12849;DHT22;6493;50.928;7.172;2022-12-07T15:54:41;2.60;69.80
12849;DHT22;6493;50.928;7.172;2022-12-07T15:59:45;2.60;69.80
12849;DHT22;6493;50.928;7.172;2022-12-07T16:04:49;2.60;69.80
12849;DHT22;6493;50.928;7.172;2022-12-07T16:09:53;2.60;69.60
12849;DHT22;6493;50.928;7.172;2022-12-07T16:14:57;2.50;69.40
12849;DHT22;6493;50.928;7.172;2022-12-07T16:20:01;2.40;69.20
12849;DHT22;6493;50.928;7.172;2022-12-07T16:25:08;2.30;69.30
12849;DHT22;6493;50.928;7.172;2022-12-07T16:30:13;2.30;69.40
12849;DHT22;6493;50.928;7.172;2022-12-07T16:35:18;2.20;69.50
12849;DHT22;6493;50.928;7.172;2022-12-07T16:40:23;2.20;69.60
12849;DHT22;6493;50.928;7.172;2022-12-07T16:45:27;2.20;69.60
12849;DHT22;6493;50.928;7.172;2022-12-07T16:50:30;2.20;69.50
12849;DHT22;6493;50.928;7.172;2022-12-07T16:55:37;2.20;70.20
12849;DHT22;6493;50.928;7.172;2022-12-07T17:00:42;2.20;69.50
12849;DHT22;6493;50.928;7.172;2022-12-07T17:05:46;2.10;69.40
12849;DHT22;6493;50.928;7.172;2022-12-07T17:10:52;2.10;69.40
12849;DHT22;6493;50.928;7.172;2022-12-07T17:15:57;2.00;69.30
12849;DHT22;6493;50.928;7.172;2022-12-07T17:21:02;2.00;69.40
12849;DHT22;6493;50.928;7.172;2022-12-07T17:26:10;2.00;69.40
12849;DHT22;6493;50.928;7.172;2022-12-07T17:31:16;2.00;69.50
12849;DHT22;6493;50.928;7.172;2022-12-07T17:36:22;2.00;69.50
12849;DHT22;6493;50.928;7.172;2022-12-07T17:41:28;1.90;69.40
12849;DHT22;6493;50.928;7.172;2022-12-07T17:46:52;1.90;69.40
12849;DHT22;6493;50.928;7.172;2022-12-07T17:51:57;1.90;69.50
12849;DHT22;6493;50.928;7.172;2022-12-07T17:57:20;1.90;69.50
12849;DHT22;6493;50.928;7.172;2022-12-07T18:02:23;1.90;69.50
12849;DHT22;6493;50.928;7.172;2022-12-07T18:07:27;1.90;69.50
12849;DHT22;6493;50.928;7.172;2022-12-07T18:12:32;1.90;69.60
12849;DHT22;6493;50.928;7.172;2022-12-07T18:17:36;1.80;69.50
12849;DHT22;6493;50.928;7.172;2022-12-07T18:22:39;1.80;69.50
12849;DHT22;6493;50.928;7.172;2022-12-07T18:27:45;1.80;69.50
12849;DHT22;6493;50.928;7.172;2022-12-07T18:32:49;1.80;69.50
12849;DHT22;6493;50.928;7.172;2022-12-07T18:37:53;1.80;69.60
12849;DHT22;6493;50.928;7.172;2022-12-07T18:42:58;1.80;69.60
12849;DHT22;6493;50.928;7.172;2022-12-07T18:48:02;1.80;69.60
12849;DHT22;6493;50.928;7.172;2022-12-07T18:53:05;1.80;69.60
12849;DHT22;6493;50.928;7.172;2022-12-07T18:58:12;1.80;69.60
12849;DHT22;6493;50.928;7.172;2022-12-07T19:03:15;1.80;69.70
12849;DHT22;6493;50.928;7.172;2022-12-07T19:08:19;1.80;69.70
12849;DHT22;6493;50.928;7.172;2022-12-07T19:13:24;1.80;69.70
12849;DHT22;6493;50.928;7.172;2022-12-07T19:18:27;1.80;69.70
12849;DHT22;6493;50.928;7.172;2022-12-07T19:23:31;1.80;69.70
12849;DHT22;6493;50.928;7.172;2022-12-07T19:28:36;1.80;69.70
12849;DHT22;6493;50.928;7.172;2022-12-07T19:33:39;1.80;69.80
12849;DHT22;6493;50.928;7.172;2022-12-07T19:38:43;1.80;69.90
12849;DHT22;6493;50.928;7.172;2022-12-07T19:43:48;1.80;69.90
12849;DHT22;6493;50.928;7.172;2022-12-07T19:48:52;1.80;70.10
12849;DHT22;6493;50.928;7.172;2022-12-07T19:53:57;1.80;70.10
12849;DHT22;6493;50.928;7.172;2022-12-07T19:59:02;1.80;70.10
12849;DHT22;6493;50.928;7.172;2022-12-07T20:04:08;1.80;70.00
12849;DHT22;6493;50.928;7.172;2022-12-07T20:09:12;1.80;70.10
12849;DHT22;6493;50.928;7.172;2022-12-07T20:14:17;1.80;70.00
12849;DHT22;6493;50.928;7.172;2022-12-07T20:19:21;1.90;70.10
12849;DHT22;6493;50.928;7.172;2022-12-07T20:24:25;1.90;70.10
12849;DHT22;6493;50.928;7.172;2022-12-07T20:29:31;1.80;69.90
12849;DHT22;6493;50.928;7.172;2022-12-07T20:34:34;1.90;70.10
12849;DHT22;6493;50.928;7.172;2022-12-07T20:39:38;1.90;70.00
12849;DHT22;6493;50.928;7.172;2022-12-07T20:44:43;1.90;70.00
12849;DHT22;6493;50.928;7.172;2022-12-07T20:49:47;1.90;70.10
12849;DHT22;6493;50.928;7.172;2022-12-07T20:54:50;1.90;70.00
12849;DHT22;6493;50.928;7.172;2022-12-07T20:59:56;1.90;70.00
12849;DHT22;6493;50.928;7.172;2022-12-07T21:05:00;1.90;70.00
12849;DHT22;6493;50.928;7.172;2022-12-07T21:10:05;1.90;70.20
12849;DHT22;6493;50.928;7.172;2022-12-07T21:15:12;1.90;70.00
12849;DHT22;6493;50.928;7.172;2022-12-07T21:20:16;1.90;70.00
12849;DHT22;6493;50.928;7.172;2022-12-07T21:25:20;1.90;70.00
12849;DHT22;6493;50.928;7.172;2022-12-07T21:30:25;1.90;70.00
12849;DHT22;6493;50.928;7.172;2022-12-07T21:35:38;1.80;69.90
12849;DHT22;6493;50.928;7.172;2022-12-07T21:40:41;1.80;69.90
12849;DHT22;6493;50.928;7.172;2022-12-07T21:45:50;1.80;69.90
12849;DHT22;6493;50.928;7.172;2022-12-07T21:50:54;1.80;70.00
12849;DHT22;6493;50.928;7.172;2022-12-07T21:55:57;1.80;70.00
12849;DHT22;6493;50.928;7.172;2022-12-07T22:01:04;1.80;69.90
12849;DHT22;6493;50.928;7.172;2022-12-07T22:06:09;1.70;70.50
12849;DHT22;6493;50.928;7.172;2022-12-07T22:11:15;1.70;69.70
12849;DHT22;6493;50.928;7.172;2022-12-07T22:16:23;1.70;69.70
12849;DHT22;6493;50.928;7.172;2022-12-07T22:21:28;1.70;70.50
12849;DHT22;6493;50.928;7.172;2022-12-07T22:26:32;1.60;69.70
12849;DHT22;6493;50.928;7.172;2022-12-07T22:31:37;1.60;69.80
12849;DHT22;6493;50.928;7.172;2022-12-07T22:36:42;1.60;70.60
12849;DHT22;6493;50.928;7.172;2022-12-07T22:41:46;1.60;69.80
12849;DHT22;6493;50.928;7.172;2022-12-07T22:46:51;1.60;69.80
12849;DHT22;6493;50.928;7.172;2022-12-07T22:51:54;1.60;69.80
12849;DHT22;6493;50.928;7.172;2022-12-07T22:56:59;1.60;69.70
12849;DHT22;6493;50.928;7.172;2022-12-07T23:02:04;1.60;69.80
12849;DHT22;6493;50.928;7.172;2022-12-07T23:07:08;1.60;69.80
12849;DHT22;6493;50.928;7.172;2022-12-07T23:12:11;1.50;69.80
12849;DHT22;6493;50.928;7.172;2022-12-07T23:17:35;1.60;69.90
12849;DHT22;6493;50.928;7.172;2022-12-07T23:22:40;1.60;69.90
12849;DHT22;6493;50.928;7.172;2022-12-07T23:27:46;1.60;69.90
12849;DHT22;6493;50.928;7.172;2022-12-07T23:32:53;1.50;69.80
12849;DHT22;6493;50.928;7.172;2022-12-07T23:37:56;1.50;69.80
12849;DHT22;6493;50.928;7.172;2022-12-07T23:43:00;1.60;70.00
12849;DHT22;6493;50.928;7.172;2022-12-07T23:48:07;1.60;69.90
12849;DHT22;6493;50.928;7.172;2022-12-07T23:53:10;1.60;69.90
12849;DHT22;6493;50.928;7.172;2022-12-07T23:58:14;1.60;69.80
